Time;durP1;ratioP1;P1;durP2;ratioP2;P2;SDS_P1;SDS_P2;PMS_P1;PMS_P2;Temp;Humidity;BMP_temperature;BMP_pressure;BME280_temperature;BME280_humidity;BME280_pressure;Samples;Min_cycle;Max_cycle;Signal;HPM_P1;HPM_P2
2021/03/03 00:02:51;;;;;;;59.58;29.10;;;;;;;1.33;70.35;101616.34;10512378;28;20394;-67
2021/03/03 00:07:52;;;;;;;52.70;28.48;;;;;;;1.44;69.61;101612.38;10511389;28;20040;-67
2021/03/03 00:12:53;;;;;;;58.03;28.40;;;;;;;1.30;69.87;101607.59;10512823;28;20075;-67
2021/03/03 00:17:55;;;;;;;62.03;28.60;;;;;;;1.16;70.33;101599.41;10510915;28;20045;-68
2021/03/03 00:22:56;;;;;;;47.42;25.90;;;;;;;1.00;71.28;101598.91;10510706;28;20045;-68
2021/03/03 00:27:57;;;;;;;53.42;27.17;;;;;;;0.92;71.51;101602.94;10510410;28;20052;-68
2021/03/03 00:32:59;;;;;;;55.15;26.65;;;;;;;1.00;71.19;101598.03;10511281;28;20110;-68
2021/03/03 00:38:00;;;;;;;43.92;24.92;;;;;;;0.68;71.44;101603.03;10508759;28;20044;-68
2021/03/03 00:43:01;;;;;;;54.35;25.88;;;;;;;0.47;72.30;101603.19;10510104;28;20509;-68
2021/03/03 00:48:03;;;;;;;50.92;27.13;;;;;;;0.33;72.52;101607.00;10509718;28;20094;-67
2021/03/03 00:53:12;;;;;;;49.90;26.77;;;;;;;0.38;72.33;101609.75;10508979;28;20064;-68
2021/03/03 00:58:16;;;;;;;43.88;24.48;;;;;;;0.51;72.43;101601.59;10508038;28;20043;-68
2021/03/03 01:03:27;;;;;;;55.83;26.17;;;;;;;0.66;71.84;101596.03;10506851;28;20044;-67
2021/03/03 01:08:36;;;;;;;43.42;24.25;;;;;;;0.35;72.70;101594.97;10508273;28;20057;-66
2021/03/03 01:13:39;;;;;;;46.70;24.73;;;;;;;0.33;72.74;101590.59;10508375;28;20043;-68
2021/03/03 01:18:45;;;;;;;39.55;23.65;;;;;;;0.42;71.95;101589.22;10507125;28;20096;-69
2021/03/03 01:23:46;;;;;;;44.72;24.13;;;;;;;0.20;71.55;101578.94;10507741;28;20044;-66
2021/03/03 01:28:48;;;;;;;43.10;24.35;;;;;;;0.18;73.04;101575.44;10498162;28;20103;-67
2021/03/03 01:33:49;;;;;;;43.00;22.35;;;;;;;0.47;72.86;101569.53;10463042;28;20449;-66
2021/03/03 01:38:51;;;;;;;40.45;22.02;;;;;;;0.53;72.75;101567.97;10462379;28;20049;-68
2021/03/03 01:43:52;;;;;;;36.00;22.88;;;;;;;0.40;73.13;101566.69;10467326;28;20055;-67
2021/03/03 01:48:54;;;;;;;44.03;23.13;;;;;;;0.31;72.69;101561.19;10502239;28;20044;-67
2021/03/03 01:53:55;;;;;;;41.13;23.50;;;;;;;0.50;72.14;101551.53;10503706;28;20055;-66
2021/03/03 01:58:56;;;;;;;44.17;22.60;;;;;;;0.29;72.13;101555.13;10502212;28;20063;-66
2021/03/03 02:03:58;;;;;;;38.10;21.38;;;;;;;0.27;72.04;101551.56;10503231;28;20048;-66
2021/03/03 02:09:10;;;;;;;41.72;22.67;;;;;;;-0.33;72.78;101549.47;10501882;28;20514;-66
2021/03/03 02:14:18;;;;;;;42.45;22.25;;;;;;;-0.40;73.18;101544.91;10504293;28;20071;-66
2021/03/03 02:19:23;;;;;;;36.47;21.08;;;;;;;-0.28;73.10;101545.34;10501341;28;20479;-66
2021/03/03 02:24:27;;;;;;;39.55;22.27;;;;;;;-0.01;72.92;101540.28;10494008;28;20503;-66
2021/03/03 02:29:30;;;;;;;37.40;21.48;;;;;;;-0.17;73.26;101525.97;10462694;28;20049;-66
2021/03/03 02:34:32;;;;;;;38.95;22.50;;;;;;;-0.39;73.28;101521.72;10469281;28;20052;-67
2021/03/03 02:39:34;;;;;;;34.17;22.20;;;;;;;0.08;73.36;101513.88;10460827;28;20067;-66
2021/03/03 02:44:37;;;;;;;36.92;21.55;;;;;;;0.18;72.98;101510.78;10460159;28;20049;-65
2021/03/03 02:49:39;;;;;;;31.85;21.08;;;;;;;0.13;73.10;101509.72;10461953;28;20077;-66
2021/03/03 02:54:42;;;;;;;36.80;22.10;;;;;;;-0.05;73.15;101502.22;10459218;28;20045;-66
2021/03/03 02:59:52;;;;;;;33.03;20.90;;;;;;;-0.12;72.96;101500.28;10457343;28;20045;-66
2021/03/03 03:04:55;;;;;;;33.97;20.85;;;;;;;-0.06;72.81;101488.44;10458792;28;20045;-67
2021/03/03 03:09:59;;;;;;;29.75;19.73;;;;;;;-0.24;72.70;101489.50;10458325;28;20103;-66
2021/03/03 03:15:01;;;;;;;30.75;19.95;;;;;;;-0.15;72.74;101482.94;10459068;28;20078;-66
2021/03/03 03:20:05;;;;;;;33.88;20.15;;;;;;;-0.28;72.73;101489.38;10459078;28;20037;-66
2021/03/03 03:25:07;;;;;;;29.70;20.15;;;;;;;-0.32;72.89;101492.69;10468312;28;20049;-68
2021/03/03 03:30:12;;;;;;;25.73;18.98;;;;;;;-0.27;72.57;101487.66;10468193;28;20410;-65
2021/03/03 03:35:14;;;;;;;28.88;19.42;;;;;;;-0.17;71.71;101479.44;10466880;28;20048;-67
2021/03/03 03:40:16;;;;;;;27.95;18.30;;;;;;;-0.19;71.36;101477.63;10466995;28;20162;-67
2021/03/03 03:45:17;;;;;;;28.33;18.08;;;;;;;-0.40;71.85;101477.72;10467175;28;20106;-67
2021/03/03 03:50:25;;;;;;;26.92;18.67;;;;;;;-0.20;70.97;101481.03;10465797;28;20078;-65
2021/03/03 03:55:34;;;;;;;26.17;16.15;;;;;;;-0.58;71.60;101481.41;10466984;28;20105;-67
2021/03/03 04:00:35;;;;;;;24.33;16.73;;;;;;;-0.33;70.69;101471.97;10466436;28;20041;-68
2021/03/03 04:05:36;;;;;;;27.10;16.88;;;;;;;-0.39;70.92;101469.16;10465091;28;20064;-67
2021/03/03 04:10:38;;;;;;;23.15;17.30;;;;;;;-0.43;71.23;101477.63;10466394;28;20499;-67
2021/03/03 04:15:39;;;;;;;20.95;15.50;;;;;;;-0.47;71.62;101479.22;10465390;28;20040;-67
2021/03/03 04:20:41;;;;;;;24.60;16.77;;;;;;;-0.39;71.43;101479.50;10465433;28;20044;-67
2021/03/03 04:25:43;;;;;;;24.20;17.48;;;;;;;-0.50;71.71;101489.44;10464959;28;20049;-66
2021/03/03 04:30:45;;;;;;;27.05;18.23;;;;;;;-0.43;71.70;101487.97;10465280;28;20127;-66
2021/03/03 04:35:46;;;;;;;32.13;17.88;;;;;;;-0.72;72.22;101492.06;10462669;28;20443;-65
2021/03/03 04:40:47;;;;;;;26.17;17.45;;;;;;;-0.90;72.63;101494.81;10463941;28;20426;-66
2021/03/03 04:45:49;;;;;;;37.85;19.83;;;;;;;-0.32;72.30;101489.22;10463705;28;20079;-66
2021/03/03 04:50:50;;;;;;;33.08;19.80;;;;;;;-0.33;72.49;101485.75;10463390;28;20080;-66
2021/03/03 04:55:51;;;;;;;26.38;18.25;;;;;;;-0.43;72.46;101483.69;10464389;28;20067;-66
2021/03/03 05:00:53;;;;;;;25.15;17.65;;;;;;;-0.71;73.20;101471.44;10463447;28;20491;-66
2021/03/03 05:06:07;;;;;;;30.58;20.13;;;;;;;-0.48;72.62;101456.81;10463120;28;20411;-66
2021/03/03 05:11:08;;;;;;;37.60;19.80;;;;;;;-0.32;73.22;101458.22;10463333;28;20037;-67
2021/03/03 05:16:10;;;;;;;30.65;20.05;;;;;;;-0.34;73.13;101447.84;10461407;28;20498;-66
2021/03/03 05:21:12;;;;;;;29.63;18.38;;;;;;;-0.57;72.90;101459.06;10462333;28;20541;-67
2021/03/03 05:26:13;;;;;;;30.10;19.05;;;;;;;-0.50;73.16;101461.03;10463028;28;20040;-66
2021/03/03 05:31:14;;;;;;;26.73;18.77;;;;;;;-0.53;72.63;101461.81;10461854;28;20049;-66
2021/03/03 05:36:32;;;;;;;28.33;18.63;;;;;;;-0.47;72.46;101461.16;10463510;28;20099;-66
2021/03/03 05:41:33;;;;;;;24.70;17.35;;;;;;;-0.84;72.52;101462.41;10463419;28;20052;-68
2021/03/03 05:46:39;;;;;;;27.73;17.52;;;;;;;-0.82;72.87;101447.81;10464405;28;20048;-68
2021/03/03 05:51:41;;;;;;;29.52;18.35;;;;;;;-0.74;73.53;101452.41;10501958;28;20255;-68
2021/03/03 05:56:44;;;;;;;32.05;20.02;;;;;;;-0.49;73.46;101449.84;10504391;28;20037;-68
2021/03/03 06:01:46;;;;;;;34.30;20.52;;;;;;;-0.56;73.84;101447.91;10503996;28;20052;-67
2021/03/03 06:06:57;;;;;;;101.55;26.83;;;;;;;-0.67;73.92;101437.16;10501815;28;20096;-67
2021/03/03 06:11:59;;;;;;;40.35;21.90;;;;;;;-0.35;73.60;101443.50;10502593;28;20082;-67
2021/03/03 06:17:00;;;;;;;30.50;18.95;;;;;;;-0.53;73.81;101435.09;10505455;28;20046;-65
2021/03/03 06:22:25;;;;;;;32.40;20.20;;;;;;;0.08;71.66;101446.66;10507019;28;20371;-67
2021/03/03 06:27:37;;;;;;;29.23;19.60;;;;;;;-0.04;71.81;101442.84;10507583;28;20071;-65
2021/03/03 06:33:00;;;;;;;31.33;18.23;;;;;;;0.43;71.29;101440.91;10506857;28;20044;-66
2021/03/03 06:38:03;;;;;;;19.08;16.63;;;;;;;2.27;66.88;101433.13;10505584;28;20032;-65
2021/03/03 06:43:28;;;;;;;21.83;15.50;;;;;;;3.61;62.29;101429.97;10505791;28;20055;-64
2021/03/03 06:48:41;;;;;;;18.60;16.25;;;;;;;3.57;60.87;101427.28;10506548;28;20119;-65
2021/03/03 06:53:42;;;;;;;19.98;15.63;;;;;;;4.47;59.62;101428.84;10504369;28;20048;-66
2021/03/03 06:58:43;;;;;;;16.15;14.52;;;;;;;5.72;56.33;101427.88;10502814;28;20033;-66
2021/03/03 07:03:44;;;;;;;18.80;16.30;;;;;;;4.24;59.01;101423.25;10503844;28;20041;-66
2021/03/03 07:08:59;;;;;;;21.73;17.42;;;;;;;4.09;59.66;101430.84;10506139;28;20383;-66
2021/03/03 07:14:12;;;;;;;16.95;15.25;;;;;;;4.78;57.75;101420.63;10509254;28;20044;-65
2021/03/03 07:19:20;;;;;;;19.50;16.95;;;;;;;3.71;60.88;101415.41;10505555;28;20037;-65
2021/03/03 07:24:22;;;;;;;22.20;18.95;;;;;;;3.62;61.27;101412.66;10507375;28;20049;-65
2021/03/03 07:29:25;;;;;;;28.58;18.95;;;;;;;3.39;61.92;101417.41;10509561;28;20045;-64
2021/03/03 07:34:27;;;;;;;18.58;16.67;;;;;;;4.54;59.76;101409.84;10509083;28;20410;-64
2021/03/03 07:39:36;;;;;;;17.52;15.75;;;;;;;5.07;57.91;101402.78;10506761;28;20044;-65
2021/03/03 07:44:41;;;;;;;20.77;16.88;;;;;;;4.29;59.56;101403.38;10504420;28;20124;-65
2021/03/03 07:49:46;;;;;;;19.73;16.23;;;;;;;4.42;60.14;101402.72;10506302;28;20076;-65
2021/03/03 07:54:48;;;;;;;17.50;15.10;;;;;;;5.75;55.74;101386.13;10488133;28;20052;-65
2021/03/03 07:59:51;;;;;;;19.60;17.30;;;;;;;5.29;56.81;101387.41;10502264;28;20047;-65
2021/03/03 08:05:02;;;;;;;16.80;15.10;;;;;;;6.84;54.09;101381.75;10500231;28;20094;-65
2021/03/03 08:10:19;;;;;;;18.77;16.33;;;;;;;6.62;53.42;101378.13;10508111;28;20081;-65
2021/03/03 08:15:31;;;;;;;;;;;;;;;6.74;53.71;101375.59;10507068;28;20049;-64
2021/03/03 08:20:32;;;;;;;18.90;16.25;;;;;;;9.33;48.48;101360.75;10512648;28;19927;-66
2021/03/03 08:25:50;;;;;;;17.00;15.23;;;;;;;12.59;41.52;101358.63;10524551;28;20055;-65
2021/03/03 08:31:07;;;;;;;16.02;14.52;;;;;;;12.00;42.89;101355.28;10550170;28;20032;-65
2021/03/03 08:36:20;;;;;;;16.90;15.38;;;;;;;12.03;42.77;101350.81;10551950;28;20071;-64
2021/03/03 08:46:29;;;;;;;16.52;15.13;;;;;;;16.92;35.12;101343.06;10534857;28;20123;-65
2021/03/03 08:51:37;;;;;;;16.52;15.10;;;;;;;15.16;36.77;101352.41;10469073;28;20095;-65
2021/03/03 08:56:48;;;;;;;16.23;14.82;;;;;;;15.42;36.93;101346.34;10483176;28;20093;-65
2021/03/03 09:02:03;;;;;;;17.30;15.80;;;;;;;17.01;33.88;101332.97;10551471;28;20168;-67
2021/03/03 09:07:06;;;;;;;16.48;14.68;;;;;;;16.50;35.57;101336.56;10552319;28;20036;-65
2021/03/03 09:12:12;;;;;;;16.10;14.60;;;;;;;15.77;36.06;101332.00;10525519;28;20059;-65
2021/03/03 09:17:25;;;;;;;15.37;14.17;;;;;;;14.01;39.21;101339.66;10491591;28;20044;-65
2021/03/03 09:22:42;;;;;;;18.63;16.95;;;;;;;10.11;46.61;101348.84;10506173;28;20494;-65
2021/03/03 09:27:50;;;;;;;18.57;16.87;;;;;;;9.65;47.54;101340.44;10505929;28;20358;-65
2021/03/03 09:32:53;;;;;;;21.55;17.55;;;;;;;8.22;51.03;101334.91;10504356;28;20071;-64
2021/03/03 09:37:55;;;;;;;18.95;17.08;;;;;;;8.00;52.30;101337.53;10504409;28;20094;-66
2021/03/03 09:42:56;;;;;;;23.10;17.50;;;;;;;7.50;53.73;101338.38;10505269;28;20083;-65
2021/03/03 09:47:59;;;;;;;21.15;18.15;;;;;;;7.12;54.97;101340.88;10521131;28;20150;-66
2021/03/03 09:53:01;;;;;;;19.80;17.33;;;;;;;7.58;54.01;101326.19;10504549;28;20493;-65
2021/03/03 09:58:03;;;;;;;24.45;18.42;;;;;;;7.51;55.43;101328.78;10505566;28;20443;-65
2021/03/03 10:03:12;;;;;;;19.25;17.35;;;;;;;7.84;53.65;101328.81;10487617;28;20123;-66
2021/03/03 10:08:14;;;;;;;19.42;17.48;;;;;;;7.67;54.30;101335.78;10528942;28;20072;-65
2021/03/03 10:13:23;;;;;;;26.45;18.23;;;;;;;8.00;54.36;101320.94;10540734;28;20045;-65
2021/03/03 10:18:29;;;;;;;21.83;18.38;;;;;;;8.58;53.13;101307.75;10505186;28;20498;-66
2021/03/03 10:23:33;;;;;;;21.52;16.42;;;;;;;9.31;51.49;101294.31;10522907;28;20396;-65
2021/03/03 10:28:40;;;;;;;17.33;15.73;;;;;;;9.90;49.77;101297.34;10545039;28;20072;-65
2021/03/03 10:33:43;;;;;;;;;;;;;;;10.35;49.77;101300.44;10526917;28;20058;-65
2021/03/03 10:38:57;;;;;;;19.60;16.05;;;;;;;10.99;48.38;101286.53;10525675;28;19920;-65
2021/03/03 10:43:59;;;;;;;22.55;16.40;;;;;;;10.86;48.02;101292.84;10545435;28;20120;-64
2021/03/03 10:49:15;;;;;;;18.35;15.23;;;;;;;11.57;46.45;101287.44;10524737;28;20044;-65
2021/03/03 10:54:28;;;;;;;;;;;;;;;11.94;47.33;101287.72;10511187;28;20067;-65
2021/03/03 10:59:30;;;;;;;17.10;15.45;;;;;;;12.36;46.26;101278.16;10509496;28;20347;-66
2021/03/03 11:04:41;;;;;;;17.33;15.73;;;;;;;11.58;46.49;101262.84;10544588;28;20466;-65
2021/03/03 11:09:51;;;;;;;18.92;16.95;;;;;;;11.93;46.34;101249.09;10518964;28;20044;-64
2021/03/03 11:14:53;;;;;;;17.45;15.65;;;;;;;11.67;47.05;101243.38;10460090;28;20443;-64
2021/03/03 11:19:55;;;;;;;17.65;15.98;;;;;;;11.61;46.64;101239.09;10458929;28;20065;-62
2021/03/03 11:24:56;;;;;;;20.63;16.73;;;;;;;11.50;46.16;101236.63;10457345;28;20041;-63
2021/03/03 11:29:58;;;;;;;20.23;16.58;;;;;;;11.50;48.33;101228.72;10459094;28;20395;-64
2021/03/03 11:35:00;;;;;;;17.40;15.85;;;;;;;12.03;46.88;101226.94;10458252;28;20052;-64
2021/03/03 11:40:02;;;;;;;17.48;15.77;;;;;;;11.66;46.63;101223.22;10457712;28;20055;-63
2021/03/03 11:45:05;;;;;;;17.20;15.80;;;;;;;11.66;45.25;101215.31;10465736;28;20502;-66
2021/03/03 11:50:08;;;;;;;18.13;16.35;;;;;;;11.74;46.39;101202.88;10465703;28;20083;-66
2021/03/03 11:55:10;;;;;;;20.27;16.92;;;;;;;12.43;45.50;101194.53;10447876;28;20053;-66
2021/03/03 12:00:13;;;;;;;16.40;14.80;;;;;;;12.73;43.87;101192.13;10465611;28;20091;-65
2021/03/03 12:05:14;;;;;;;19.73;17.35;;;;;;;13.16;44.09;101183.25;10447838;28;20049;-64
2021/03/03 12:10:16;;;;;;;17.90;15.95;;;;;;;13.22;43.89;101180.44;10466863;28;20503;-63
2021/03/03 12:15:18;;;;;;;21.33;18.38;;;;;;;12.83;44.83;101170.78;10466804;28;20045;-64
2021/03/03 12:20:19;;;;;;;19.23;17.45;;;;;;;12.56;45.67;101163.47;10464994;28;20091;-63
2021/03/03 12:25:22;;;;;;;176.35;27.85;;;;;;;12.28;45.86;101161.44;10476218;28;20113;-63
2021/03/03 12:30:24;;;;;;;20.48;17.88;;;;;;;11.71;46.14;101152.88;10525897;28;20044;-63
2021/03/03 12:35:25;;;;;;;20.70;18.70;;;;;;;11.53;46.94;101151.47;10531051;28;20410;-64
2021/03/03 12:40:26;;;;;;;29.40;18.45;;;;;;;10.98;47.94;101144.47;10549111;28;20405;-62
2021/03/03 12:45:27;;;;;;;19.65;17.65;;;;;;;10.90;48.21;101135.84;10513293;28;20094;-63
2021/03/03 12:50:29;;;;;;;21.73;16.80;;;;;;;11.07;48.41;101124.16;10507690;28;20036;-64
2021/03/03 12:55:31;;;;;;;19.08;17.38;;;;;;;11.17;48.02;101116.97;10509043;28;20094;-66
2021/03/03 13:00:33;;;;;;;19.35;17.65;;;;;;;11.02;48.13;101114.59;10490512;28;20127;-65
2021/03/03 13:05:34;;;;;;;20.70;18.48;;;;;;;10.79;48.75;101113.19;10508498;28;20047;-65
2021/03/03 13:10:36;;;;;;;20.63;18.50;;;;;;;10.74;48.50;101109.78;10509198;28;20033;-67
2021/03/03 13:15:37;;;;;;;20.27;18.35;;;;;;;10.79;49.28;101100.03;10471573;28;20471;-67
2021/03/03 13:20:39;;;;;;;25.35;18.88;;;;;;;11.03;48.77;101095.31;10506786;28;20479;-67
2021/03/03 13:25:40;;;;;;;33.88;20.38;;;;;;;11.15;48.35;101084.53;10506300;28;20045;-65
2021/03/03 13:30:42;;;;;;;39.70;21.88;;;;;;;10.95;49.16;101091.94;10504709;28;20071;-65
2021/03/03 13:35:44;;;;;;;29.38;21.00;;;;;;;10.96;50.27;101083.13;10486677;28;20040;-64
2021/03/03 13:40:46;;;;;;;22.10;19.80;;;;;;;11.11;49.05;101081.13;10504472;28;20071;-64
2021/03/03 13:45:48;;;;;;;22.52;20.17;;;;;;;11.11;49.40;101075.88;10487540;28;20094;-66
2021/03/03 13:50:50;;;;;;;20.48;18.63;;;;;;;11.14;48.82;101077.56;10504100;28;20047;-64
2021/03/03 13:55:56;;;;;;;29.30;20.23;;;;;;;10.95;49.03;101077.00;10504497;28;20450;-65
2021/03/03 14:00:57;;;;;;;20.98;18.98;;;;;;;11.26;48.76;101064.19;10503460;28;20040;-65
2021/03/03 14:05:58;;;;;;;29.88;21.33;;;;;;;11.22;48.83;101053.75;10504066;28;20453;-65
2021/03/03 14:11:00;;;;;;;25.17;21.02;;;;;;;11.19;48.75;101049.38;10502011;28;20131;-65
2021/03/03 14:16:01;;;;;;;32.70;20.90;;;;;;;10.90;50.38;101055.16;10483152;28;20048;-64
2021/03/03 14:21:03;;;;;;;24.02;21.27;;;;;;;10.93;49.36;101046.34;10502406;28;20572;-65
2021/03/03 14:26:05;;;;;;;32.35;21.45;;;;;;;10.54;50.51;101028.59;10502451;28;20049;-65
2021/03/03 14:31:07;;;;;;;26.52;21.85;;;;;;;10.44;51.06;101032.22;10502351;28;20045;-66
2021/03/03 14:36:08;;;;;;;24.02;21.65;;;;;;;10.29;51.24;101024.59;10501454;28;20495;-64
2021/03/03 14:41:09;;;;;;;38.47;21.00;;;;;;;10.13;51.30;101013.38;10483322;28;20033;-63
2021/03/03 14:46:11;;;;;;;28.55;21.42;;;;;;;10.15;51.41;101018.63;10501392;28;20127;-63
2021/03/03 14:51:12;;;;;;;24.58;21.98;;;;;;;9.66;52.39;101006.16;10500361;28;20063;-62
2021/03/03 14:56:14;;;;;;;33.35;22.50;;;;;;;9.38;53.27;101013.47;10501351;28;20044;-63
2021/03/03 15:01:16;;;;;;;33.80;21.42;;;;;;;8.95;54.18;101004.31;10500632;28;20076;-65
2021/03/03 15:06:17;;;;;;;34.17;22.95;;;;;;;9.11;53.76;100994.53;10482817;28;20040;-64
2021/03/03 15:11:19;;;;;;;32.25;23.15;;;;;;;8.95;54.17;100998.22;10501159;28;20094;-65
2021/03/03 15:16:20;;;;;;;32.53;23.33;;;;;;;9.17;53.55;100997.09;10501360;28;20070;-64
2021/03/03 15:21:22;;;;;;;26.20;22.95;;;;;;;8.98;54.55;100992.91;10467972;28;20045;-65
2021/03/03 15:26:23;;;;;;;30.85;23.40;;;;;;;8.84;54.70;100995.66;10509110;28;20478;-68
2021/03/03 15:31:25;;;;;;;36.25;24.55;;;;;;;8.80;55.31;100981.72;10513051;28;20041;-67
2021/03/03 15:36:26;;;;;;;33.00;23.88;;;;;;;8.46;56.22;100981.16;10485194;28;20053;-68
2021/03/03 15:41:27;;;;;;;33.25;24.70;;;;;;;8.77;54.34;100966.03;10483684;28;20044;-66
2021/03/03 15:46:29;;;;;;;32.78;24.27;;;;;;;8.52;55.30;100967.13;10501607;28;20044;-67
2021/03/03 15:51:30;;;;;;;30.35;24.23;;;;;;;8.44;55.18;100968.94;10511381;28;20054;-65
2021/03/03 15:56:32;;;;;;;35.17;24.73;;;;;;;8.25;56.02;100958.56;10542134;28;20051;-64
2021/03/03 16:01:33;;;;;;;48.47;27.60;;;;;;;7.77;56.42;100965.00;10510227;28;20044;-65
2021/03/03 16:06:35;;;;;;;38.10;26.42;;;;;;;7.88;56.55;100960.59;10536367;28;20083;-63
2021/03/03 16:11:36;;;;;;;41.20;26.95;;;;;;;7.79;56.64;100952.75;10539979;28;20117;-65
2021/03/03 16:16:38;;;;;;;46.13;27.70;;;;;;;7.38;57.90;100948.59;10537795;28;20119;-64
2021/03/03 16:21:39;;;;;;;46.20;28.35;;;;;;;7.09;58.40;100943.50;10539686;28;20490;-64
2021/03/03 16:26:42;;;;;;;50.65;28.17;;;;;;;6.97;58.83;100935.69;10471580;28;20051;-63
2021/03/03 16:31:43;;;;;;;48.78;28.92;;;;;;;6.87;58.74;100932.22;10464459;28;20060;-64
2021/03/03 16:36:45;;;;;;;54.80;28.85;;;;;;;6.71;59.04;100931.38;10466409;28;20095;-63
2021/03/03 16:41:46;;;;;;;48.60;29.48;;;;;;;6.45;59.57;100931.41;10466033;28;20044;-65
2021/03/03 16:46:47;;;;;;;46.83;28.17;;;;;;;6.28;60.30;100934.00;10464904;28;20048;-63
2021/03/03 16:51:49;;;;;;;51.15;30.52;;;;;;;6.40;60.37;100932.28;10447985;28;20465;-63
2021/03/03 16:56:50;;;;;;;56.65;30.38;;;;;;;6.36;59.84;100927.91;10467067;28;20059;-63
2021/03/03 17:01:51;;;;;;;52.53;31.23;;;;;;;6.34;59.78;100920.09;10464953;28;20071;-63
2021/03/03 17:06:58;;;;;;;53.25;30.10;;;;;;;6.12;60.26;100920.97;10463407;28;20048;-64
2021/03/03 17:12:08;;;;;;;54.28;30.90;;;;;;;5.73;61.30;100922.63;10465862;28;20110;-63
2021/03/03 17:17:10;;;;;;;57.15;31.45;;;;;;;5.64;61.62;100923.47;10447584;28;20052;-65
2021/03/03 17:22:12;;;;;;;54.45;31.25;;;;;;;5.68;61.32;100920.00;10448308;28;20049;-63
2021/03/03 17:27:13;;;;;;;63.60;33.08;;;;;;;5.54;61.71;100914.75;10465557;28;20059;-64
2021/03/03 17:32:15;;;;;;;53.58;30.98;;;;;;;5.42;62.04;100909.50;10464971;28;20071;-64
2021/03/03 17:37:16;;;;;;;65.97;31.63;;;;;;;5.20;62.57;100912.88;10463329;28;20056;-64
2021/03/03 17:42:18;;;;;;;54.85;31.27;;;;;;;5.05;62.99;100909.34;10461412;28;20044;-64
2021/03/03 17:47:20;;;;;;;58.95;32.92;;;;;;;4.91;63.37;100911.00;10462701;28;20049;-66
2021/03/03 17:52:22;;;;;;;58.03;32.83;;;;;;;4.99;63.09;100914.50;10462008;28;20057;-65
2021/03/03 17:57:24;;;;;;;71.93;37.15;;;;;;;4.90;63.41;100914.47;10463289;28;20045;-65
2021/03/03 18:02:25;;;;;;;67.57;35.55;;;;;;;4.35;64.71;100921.94;10461594;28;20071;-65
2021/03/03 18:07:28;;;;;;;64.68;35.47;;;;;;;4.17;65.44;100914.84;10462756;28;20056;-66
2021/03/03 18:12:30;;;;;;;72.80;35.75;;;;;;;4.26;65.15;100908.84;10462532;28;20143;-65
2021/03/03 18:17:32;;;;;;;65.57;34.58;;;;;;;4.21;65.06;100897.53;10471706;28;20522;-65
2021/03/03 18:22:34;;;;;;;70.40;34.65;;;;;;;4.02;65.65;100892.16;10526764;28;20042;-64
2021/03/03 18:27:36;;;;;;;67.40;35.15;;;;;;;3.87;65.93;100886.81;10521396;28;20054;-63
2021/03/03 18:32:38;;;;;;;75.25;36.30;;;;;;;3.86;66.15;100882.50;10487640;28;20406;-66
2021/03/03 18:37:41;;;;;;;70.13;34.97;;;;;;;3.85;66.30;100872.06;10504740;28;20041;-65
2021/03/03 18:42:44;;;;;;;74.55;36.15;;;;;;;3.77;66.17;100867.69;10504662;28;20048;-64
2021/03/03 18:47:47;;;;;;;69.55;36.15;;;;;;;3.72;66.35;100858.97;10504995;28;20036;-66
2021/03/03 18:52:49;;;;;;;68.72;36.10;;;;;;;3.57;66.44;100852.72;10504622;28;20052;-65
2021/03/03 18:57:50;;;;;;;71.80;36.40;;;;;;;3.34;67.28;100853.38;10503891;28;20040;-65
2021/03/03 19:02:52;;;;;;;76.43;37.70;;;;;;;3.19;67.48;100850.63;10485369;28;20051;-67
2021/03/03 19:07:53;;;;;;;80.55;37.70;;;;;;;3.17;67.32;100839.31;10504673;28;20128;-64
2021/03/03 19:12:54;;;;;;;81.35;38.60;;;;;;;3.12;67.49;100838.41;10504817;28;20040;-65
2021/03/03 19:17:57;;;;;;;70.60;36.33;;;;;;;2.96;67.70;100830.41;10505666;28;20495;-66
2021/03/03 19:23:24;;;;;;;68.57;36.28;;;;;;;3.04;67.75;100827.91;10507041;22;20086;-68
2021/03/03 19:28:26;;;;;;;79.80;39.72;;;;;;;2.98;67.63;100830.44;10467222;28;20040;-67
2021/03/03 19:33:28;;;;;;;79.63;37.97;;;;;;;2.96;67.66;100826.94;10483086;28;20049;-67
2021/03/03 19:38:30;;;;;;;78.30;38.03;;;;;;;2.77;67.90;100820.66;10460613;28;20478;-65
2021/03/03 19:43:32;;;;;;;74.72;37.67;;;;;;;2.95;67.50;100820.03;10456891;28;20056;-67
2021/03/03 19:48:34;;;;;;;78.72;37.40;;;;;;;2.90;67.65;100822.56;10456815;28;20044;-66
2021/03/03 19:53:35;;;;;;;78.38;38.58;;;;;;;2.84;68.02;100817.31;10436391;28;20067;-66
2021/03/03 19:58:36;;;;;;;80.10;38.17;;;;;;;2.90;67.83;100806.13;10497328;28;20040;-66
2021/03/03 20:03:37;;;;;;;81.78;38.40;;;;;;;2.96;67.60;100801.84;10465353;28;20056;-67
2021/03/03 20:08:40;;;;;;;80.10;36.28;;;;;;;2.71;67.69;100807.63;10507725;28;20410;-66
2021/03/03 20:13:41;;;;;;;82.75;39.67;;;;;;;2.68;67.92;100800.66;10507113;28;20044;-66
2021/03/03 20:18:42;;;;;;;74.82;38.20;;;;;;;2.52;68.37;100793.50;10504214;28;20044;-67
2021/03/03 20:23:44;;;;;;;76.13;36.22;;;;;;;2.42;68.71;100797.72;10504449;28;20044;-66
2021/03/03 20:28:46;;;;;;;85.50;39.15;;;;;;;2.28;69.11;100794.94;10509089;28;20048;-66
2021/03/03 20:33:47;;;;;;;81.95;40.40;;;;;;;2.61;68.86;100790.16;10489044;28;20054;-66
2021/03/03 20:38:48;;;;;;;78.53;37.35;;;;;;;2.59;68.80;100789.28;10508261;28;20124;-66
2021/03/03 20:43:50;;;;;;;81.43;36.63;;;;;;;2.53;68.20;100780.59;10508418;28;20131;-67
2021/03/03 20:48:52;;;;;;;81.60;37.25;;;;;;;2.40;68.93;100793.38;10515808;28;20507;-66
2021/03/03 20:53:53;;;;;;;77.18;36.97;;;;;;;2.19;69.23;100779.25;10509187;28;20044;-67
2021/03/03 20:58:55;;;;;;;77.35;36.50;;;;;;;2.31;69.08;100773.38;10510501;28;20045;-66
2021/03/03 21:03:57;;;;;;;77.57;38.58;;;;;;;2.18;68.82;100782.69;10504202;28;20045;-65
2021/03/03 21:08:58;;;;;;;83.47;37.92;;;;;;;2.39;69.35;100776.03;10502016;28;20044;-66
2021/03/03 21:14:00;;;;;;;74.38;36.08;;;;;;;2.29;68.78;100769.88;10501614;28;20048;-67
2021/03/03 21:19:01;;;;;;;78.95;37.17;;;;;;;1.97;69.54;100767.69;10501387;28;20064;-67
2021/03/03 21:24:03;;;;;;;83.03;39.10;;;;;;;1.96;69.87;100760.75;10502248;28;20036;-68
2021/03/03 21:29:04;;;;;;;76.40;37.00;;;;;;;2.13;69.28;100758.44;10502273;28;20051;-66
2021/03/03 21:34:05;;;;;;;86.72;38.53;;;;;;;2.40;69.14;100746.66;10501495;28;20044;-65
2021/03/03 21:39:06;;;;;;;81.00;37.42;;;;;;;2.15;69.45;100737.69;10501521;28;20386;-66
2021/03/03 21:44:08;;;;;;;80.53;37.97;;;;;;;1.89;70.31;100734.72;10506410;28;20049;-66
2021/03/03 21:49:09;;;;;;;76.97;34.92;;;;;;;1.88;70.20;100733.84;10504021;28;20041;-67
2021/03/03 21:54:11;;;;;;;76.82;36.28;;;;;;;1.92;69.69;100732.19;10504885;28;20094;-67
2021/03/03 21:59:12;;;;;;;73.38;33.30;;;;;;;1.73;70.06;100725.88;10503749;28;20040;-66
2021/03/03 22:04:14;;;;;;;79.68;37.90;;;;;;;1.73;70.23;100712.91;10502860;28;20063;-66
2021/03/03 22:09:15;;;;;;;78.20;37.28;;;;;;;1.68;70.08;100706.75;10505580;28;20054;-66
2021/03/03 22:14:16;;;;;;;76.85;36.35;;;;;;;1.80;70.02;100708.66;10503970;28;20045;-66
2021/03/03 22:19:17;;;;;;;80.07;36.78;;;;;;;1.84;69.67;100706.13;10503575;28;20057;-67
2021/03/03 22:24:19;;;;;;;73.97;35.55;;;;;;;1.87;69.36;100700.13;10504769;28;20040;-65
2021/03/03 22:29:20;;;;;;;67.70;35.08;;;;;;;1.48;70.02;100698.69;10500600;28;20036;-67
2021/03/03 22:34:22;;;;;;;82.32;36.80;;;;;;;1.63;70.15;100691.13;10503563;28;20466;-66
2021/03/03 22:39:24;;;;;;;86.85;37.83;;;;;;;1.89;70.09;100685.47;10504231;28;20063;-67
2021/03/03 22:44:25;;;;;;;81.90;37.13;;;;;;;1.48;70.49;100691.78;10502267;28;20458;-68
2021/03/03 22:49:26;;;;;;;85.05;38.13;;;;;;;1.47;71.50;100677.09;10503171;28;20090;-66
2021/03/03 22:54:28;;;;;;;84.53;38.33;;;;;;;1.38;71.75;100671.78;10509147;28;20047;-66
2021/03/03 22:59:32;;;;;;;86.43;38.78;;;;;;;1.59;70.92;100685.88;10505408;28;20040;-67